Latest Weather Observations for Douglas River

IDD60801

Issued at 8:35 pm CST Monday 20 October 2014 (issued every 30 minutes, with the page automatically refreshed every 10 minutes)

About weather observations | Map of weather stations | Latest weather observations for NT | Other Formats
Station Details ID: 014901 Name: DOUGLAS RIVER Lat: -13.83 Lon: 131.19 Height: 42.8 m
Data from the previous 72 hours. | See also: Recent months at Douglas River
Date/Time
CST
Temp
°C
App
Temp
°C
Dew
Point
Rel
Hum
%
Delta-T
°C
Wind Press
QNH
hPa
Press
MSL
hPa
Rain
since 9 am
mm
Dir
 
Spd
km/h
Gust
km/h
Spd
kts
Gust
kts
20/08:30pm 28.4 27.9 10.9 33 10.0 E 4 7 2 4 1011.1 1010.8 0.0
20/08:00pm 29.1 29.5 12.4 35 9.8 E 2 6 1 3 1010.6 1010.3 0.0
20/07:30pm 31.7 29.1 6.2 20 13.7 ESE 9 11 5 6 1010.3 1010.0 0.0
20/07:00pm 33.0 30.4 5.9 18 14.6 SE 9 11 5 6 1009.9 1009.6 0.0
20/06:30pm 34.3 31.7 5.9 17 15.4 SE 9 17 5 9 1009.5 1009.2 0.0
20/06:00pm 35.9 32.1 5.6 15 16.5 SE 15 22 8 12 1009.0 1008.7 0.0
20/05:30pm 37.3 31.9 2.5 11 18.2 SE 20 30 11 16 1008.8 1008.5 0.0
20/05:00pm 37.7 32.2 1.8 10 18.6 ESE 20 26 11 14 1008.9 1008.6 0.0
20/04:30pm 38.0 34.6 3.8 12 18.3 SE 11 22 6 12 1008.8 1008.5 0.0
20/04:00pm 38.0 32.9 4.2 12 18.2 SE 20 28 11 15 1009.0 1008.7 0.0
20/03:30pm 38.1 34.5 5.2 13 18.0 SSE 13 24 7 13 1009.3 1009.0 0.0
20/03:00pm 36.9 33.4 7.0 16 16.7 ESE 15 28 8 15 1009.6 1009.3 0.0
20/02:30pm 36.6 34.4 10.9 21 15.2 ESE 13 32 7 17 1010.1 1009.8 0.0
20/02:00pm 37.1 34.3 11.5 21 15.3 ESE 17 30 9 16 1010.8 1010.5 0.0
20/01:30pm 37.3 34.2 11.6 21 15.4 ESE 19 28 10 15 1011.4 1011.1 0.0
20/01:00pm 36.5 34.1 13.8 25 14.0 SSE 19 28 10 15 1012.1 1011.8 0.0
20/12:30pm 35.1 32.8 13.0 26 13.4 SE 17 32 9 17 1013.0 1012.7 0.0
20/12:00pm 35.0 32.9 12.3 25 13.6 E 15 22 8 12 1013.5 1013.2 0.0
20/11:30am 35.3 31.2 11.5 23 14.1 SE 24 33 13 18 1014.0 1013.7 0.0
20/11:00am 36.0 33.8 12.2 23 14.3 SE 15 24 8 13 1014.5 1014.2 0.0
20/10:30am 33.7 31.8 14.3 31 11.9 ESE 17 28 9 15 1015.1 1014.8 0.0
20/10:00am 31.2 33.7 19.8 50 7.5 SW 6 9 3 5 1015.4 1015.1 0.0
20/09:30am 31.5 34.5 20.9 53 7.1 SW 6 9 3 5 1015.6 1015.3 0.0
20/09:00am 29.6 32.4 20.9 59 5.8 ESE 7 15 4 8 1015.6 1015.3 0.0
20/08:30am 28.8 33.1 22.0 66 4.6 W 2 7 1 4 1015.6 1015.3 0.0
20/08:00am 27.7 31.9 22.5 73 3.5 WNW 4 7 2 4 1015.1 1014.8 0.0
20/07:30am 25.8 31.0 22.8 83 2.0 CALM 0 0 0 0 1014.9 1014.6 0.0
20/07:00am 23.9 28.6 21.9 88 1.3 CALM 0 0 0 0 1014.3 1014.0 0.0
20/06:30am 23.1 27.6 21.6 91 1.0 CALM 0 0 0 0 1014.0 1013.7 0.0
20/06:00am 23.7 28.4 21.9 90 1.2 CALM 0 0 0 0 1013.7 1013.4 0.0
20/05:30am 24.1 28.7 21.8 87 1.5 CALM 0 0 0 0 1013.8 1013.5 0.0
20/05:00am 24.8 29.7 22.3 86 1.7 CALM 0 0 0 0 1013.5 1013.2 0.0
20/04:30am 25.0 29.9 22.3 85 1.8 CALM 0 0 0 0 1013.2 1012.9 0.0
20/04:00am 25.5 30.5 22.5 83 2.0 CALM 0 0 0 0 1013.0 1012.7 0.0
20/03:30am 26.2 31.3 22.7 81 2.4 CALM 0 0 0 0 1013.0 1012.7 0.0
20/03:00am 27.0 32.1 22.7 77 2.9 CALM 0 6 0 3 1013.0 1012.7 0.0
20/02:30am 26.2 31.1 22.3 79 2.6 CALM 0 0 0 0 1013.2 1012.9 0.0
20/02:00am 26.2 31.2 22.5 80 2.5 CALM 0 0 0 0 1013.2 1012.9 0.0
20/01:30am 26.4 31.5 22.6 79 2.6 CALM 0 0 0 0 1013.5 1013.2 0.0
20/01:00am 26.3 31.2 22.4 79 2.6 CALM 0 0 0 0 1013.5 1013.2 0.0
20/12:30am 26.6 31.5 22.3 77 2.9 CALM 0 0 0 0 1013.7 1013.4 0.0
20/12:00am 26.7 31.5 22.2 76 3.0 CALM 0 6 0 3 1013.5 1013.2 0.0
 
Date/Time
CST
Temp
°C
App
Temp
°C
Dew
Point
Rel
Hum
%
Delta-T
°C
Wind Press
QNH
hPa
Press
MSL
hPa
Rain
since 9 am
mm
Dir
 
Spd
km/h
Gust
km/h
Spd
kts
Gust
kts
19/11:30pm 26.9 31.7 22.1 75 3.2 CALM 0 6 0 3 1013.8 1013.5 0.0
19/11:00pm 27.2 32.0 22.1 73 3.4 CALM 0 6 0 3 1013.8 1013.5 0.0
19/10:30pm 27.8 31.2 22.0 70 3.9 NW 7 13 4 7 1013.2 1012.9 0.0
19/10:00pm 28.1 31.4 21.9 69 4.2 NW 7 15 4 8 1013.0 1012.7 0.0
19/09:30pm 28.4 31.7 21.9 68 4.4 NW 7 17 4 9 1012.8 1012.5 0.0
19/09:00pm 28.8 31.3 21.8 66 4.7 WNW 11 19 6 10 1011.8 1011.5 0.0
19/08:30pm 29.3 31.1 21.2 61 5.4 WNW 13 20 7 11 1011.3 1011.0 0.0
19/08:00pm 29.7 29.3 9.6 28 11.3 S 2 11 1 6 1010.6 1010.3 0.0
19/07:30pm 31.5 31.0 10.7 27 12.0 SSE 4 6 2 3 1010.1 1009.8 0.0
19/07:00pm 32.8 31.2 8.6 22 13.6 SSE 7 9 4 5 1009.5 1009.2 0.0
19/06:30pm 34.5 31.6 6.3 17 15.4 SE 11 15 6 8 1009.1 1008.8 0.0
19/06:00pm 37.2 34.0 4.9 13 17.5 ESE 11 17 6 9 1008.8 1008.5 0.0
19/05:30pm 38.2 34.2 2.7 11 18.7 E 13 22 7 12 1008.6 1008.3 0.0
19/05:00pm 38.4 36.9 6.6 14 17.8 NE 4 13 2 7 1008.3 1008.0 0.0
19/04:30pm 38.6 33.3 3.0 11 18.9 E 20 33 11 18 1008.3 1008.0 0.0
19/04:00pm 39.0 34.5 4.4 12 18.8 SE 17 30 9 16 1008.5 1008.2 0.0
19/03:30pm 39.0 35.0 4.7 12 18.7 ESE 15 20 8 11 1008.8 1008.5 0.0
19/03:00pm 38.6 35.6 7.7 15 17.6 E 13 30 7 16 1009.0 1008.7 0.0
19/02:30pm 39.2 35.9 4.8 12 18.8 ESE 11 24 6 13 1009.3 1009.0 0.0
19/02:00pm 39.1 35.2 5.3 12 18.6 E 15 30 8 16 1009.7 1009.4 0.0
19/01:30pm 38.2 34.9 6.5 14 17.7 ENE 13 20 7 11 1010.4 1010.1 0.0
19/01:00pm 37.9 31.7 1.9 10 18.7 E 24 39 13 21 1011.2 1010.9 0.0
19/12:30pm 38.0 32.4 3.4 11 18.4 E 22 43 12 23 1011.7 1011.4 0.0
19/12:00pm 36.6 33.6 10.6 20 15.3 E 17 28 9 15 1012.4 1012.1 0.0
19/11:30am 36.7 34.8 11.8 22 14.9 E 13 20 7 11 1013.0 1012.7 0.0
19/11:00am 35.1 34.8 14.4 29 12.8 NE 9 19 5 10 1013.6 1013.3 0.0
19/10:30am 33.4 32.6 15.2 33 11.3 E 13 22 7 12 1014.0 1013.7 0.0
19/10:00am 32.9 34.0 16.6 37 10.3 ENE 6 9 3 5 1014.3 1014.0 0.0
19/09:30am 31.0 35.1 22.2 59 6.0 WSW 4 7 2 4 1014.6 1014.3 0.0
19/09:00am 29.6 32.4 20.9 59 5.8 WNW 7 13 4 7 1014.7 1014.4 0.0
19/08:30am 27.7 31.2 21.1 67 4.4 WNW 4 11 2 6 1014.4 1014.1 0.0
19/08:00am 25.9 29.6 19.9 69 3.9 CALM 0 0 0 0 1014.3 1014.0 0.0
19/07:30am 23.3 26.4 18.7 75 2.9 CALM 0 0 0 0 1014.0 1013.7 0.0
19/07:00am 22.1 25.1 18.4 79 2.3 CALM 0 0 0 0 1013.8 1013.5 0.0
19/06:30am 21.6 24.3 17.7 78 2.4 CALM 0 0 0 0 1013.6 1013.3 0.0
19/06:00am 21.4 24.3 18.2 82 2.0 CALM 0 0 0 0 1013.5 1013.2 0.0
19/05:30am 20.8 23.9 18.7 88 1.3 CALM 0 0 0 0 1013.1 1012.8 0.0
19/05:00am 22.4 25.3 18.3 77 2.6 CALM 0 0 0 0 1012.7 1012.4 0.0
19/04:30am 22.6 25.5 18.1 76 2.8 CALM 0 0 0 0 1012.7 1012.4 0.0
19/04:00am 22.7 25.8 18.6 77 2.6 CALM 0 0 0 0 1012.5 1012.2 0.0
19/03:30am 22.8 26.6 20.2 85 1.7 CALM 0 0 0 0 1012.5 1012.2 0.0
19/03:00am 23.3 27.2 20.4 84 1.9 CALM 0 0 0 0 1012.3 1012.0 0.0
19/02:30am 23.1 25.8 20.2 84 1.9 NE 6 7 3 4 1012.4 1012.1 0.0
19/02:00am 23.6 27.7 20.7 84 1.9 CALM 0 0 0 0 1012.2 1011.9 0.0
19/01:30am 24.6 28.9 21.1 81 2.3 CALM 0 6 0 3 1012.2 1011.9 0.0
19/01:00am 25.1 29.3 21.0 78 2.7 CALM 0 0 0 0 1012.4 1012.1 0.0
19/12:30am 25.6 29.8 20.9 75 3.1 CALM 0 0 0 0 1012.7 1012.4 0.0
19/12:00am 26.0 30.3 21.2 75 3.2 CALM 0 6 0 3 1012.8 1012.5 0.0
 
Date/Time
CST
Temp
°C
App
Temp
°C
Dew
Point
Rel
Hum
%
Delta-T
°C
Wind Press
QNH
hPa
Press
MSL
hPa
Rain
since 9 am
mm
Dir
 
Spd
km/h
Gust
km/h
Spd
kts
Gust
kts
18/11:30pm 26.3 29.4 21.0 72 3.5 NW 6 9 3 5 1012.8 1012.5 0.0
18/11:00pm 26.6 29.9 20.7 70 3.9 N 4 7 2 4 1012.6 1012.3 0.0
18/10:30pm 27.1 29.6 19.9 64 4.7 NW 6 13 3 7 1012.5 1012.2 0.0
18/10:00pm 27.0 29.4 20.1 66 4.5 NNW 7 13 4 7 1012.3 1012.0 0.0
18/09:30pm 26.7 28.4 18.4 60 5.3 NNW 7 17 4 9 1011.8 1011.5 0.0
18/09:00pm 26.1 24.8 9.1 34 9.3 E 6 19 3 10 1011.3 1011.0 0.0
18/08:30pm 27.4 27.8 11.3 36 9.2 CALM 0 0 0 0 1010.7 1010.4 0.0
18/08:00pm 29.3 29.0 8.7 27 11.4 CALM 0 0 0 0 1010.5 1010.2 0.0
18/07:30pm 30.3 30.3 9.8 28 11.6 CALM 0 6 0 3 1010.3 1010.0 0.0
18/07:00pm 32.4 31.5 7.6 21 13.7 S 2 6 1 3 1009.9 1009.6 0.0
18/06:30pm 34.0 31.6 5.3 16 15.4 SSE 7 9 4 5 1009.6 1009.3 0.0
18/06:00pm 36.4 32.1 1.3 11 17.9 SSE 13 17 7 9 1009.1 1008.8 0.0
18/05:30pm 37.5 34.1 1.7 10 18.5 E 9 15 5 8 1008.7 1008.4 0.0
18/05:00pm 38.1 33.8 -1.3 8 19.5 ESE 11 20 6 11 1008.5 1008.2 0.0
18/04:30pm 38.4 33.7 -1.9 8 19.8 SSE 13 19 7 10 1008.6 1008.3 0.0
18/04:00pm 37.9 33.9 -2.5 8 19.6 E 9 17 5 9 1008.7 1008.4 0.0
18/03:30pm 38.0 34.7 -1.1 8 19.4 NNE 6 9 3 5 1008.8 1008.5 0.0
18/03:00pm 38.4 35.2 -0.3 9 19.5 NE 6 15 3 8 1009.1 1008.8 0.0
18/02:30pm 38.3 32.5 -1.2 8 19.6 ESE 19 26 10 14 1009.4 1009.1 0.0
18/02:00pm 36.6 33.1 5.4 14 17.0 ESE 13 22 7 12 1009.9 1009.6 0.0
18/01:30pm 36.6 32.0 3.5 13 17.5 SE 17 22 9 12 1010.7 1010.4 0.0
18/01:00pm 36.7 33.5 5.2 14 17.1 SSE 11 22 6 12 1011.3 1011.0 0.0
18/12:30pm 36.4 33.7 7.3 16 16.3 ENE 11 20 6 11 1012.0 1011.7 0.0
18/12:00pm 35.7 33.1 7.7 18 15.7 ENE 11 24 6 13 1012.8 1012.5 0.0
18/11:30am 35.6 32.5 7.2 17 15.8 E 13 22 7 12 1013.3 1013.0 0.0
18/11:00am 34.4 33.5 11.3 24 13.6 NW 7 17 4 9 1013.9 1013.6 0.0
18/10:30am 33.1 33.1 13.7 31 11.8 E 6 9 3 5 1014.2 1013.9 0.0
18/10:00am 31.7 32.6 16.2 39 9.7 N 6 9 3 5 1014.5 1014.2 0.0
18/09:30am 30.3 32.1 18.3 48 7.7 NW 6 11 3 6 1014.7 1014.4 0.0
18/09:00am 29.0 32.3 20.7 61 5.5 NW 4 7 2 4 1014.9 1014.6 0.0
18/08:30am 27.5 31.4 20.3 65 4.7 CALM 0 0 0 0 1014.9 1014.6 0.0
18/08:00am 25.5 29.2 20.0 71 3.6 CALM 0 0 0 0 1014.7 1014.4 0.0
18/07:30am 22.7 25.5 17.9 74 3.0 CALM 0 0 0 0 1014.3 1014.0 0.0
18/07:00am 21.0 23.5 17.2 79 2.3 CALM 0 0 0 0 1014.0 1013.7 0.0
18/06:30am 20.0 22.6 17.4 85 1.6 CALM 0 0 0 0 1013.5 1013.2 0.0
18/06:00am 20.5 22.9 17.1 81 2.1 CALM 0 0 0 0 1013.3 1013.0 0.0
18/05:30am 21.8 24.5 17.8 78 2.5 CALM 0 0 0 0 1013.1 1012.8 0.0
18/05:00am 20.8 21.7 16.1 74 2.8 ENE 6 9 3 5 1013.0 1012.7 0.0
18/04:30am 19.8 20.6 15.9 78 2.3 ENE 6 9 3 5 1012.7 1012.4 0.0
18/04:00am 19.9 21.5 15.9 78 2.4 ENE 2 6 1 3 1012.1 1011.8 0.0
18/03:30am 20.2 22.6 16.9 81 2.0 CALM 0 0 0 0 1012.1 1011.8 0.0
18/03:00am 20.1 21.2 16.6 80 2.1 NNE 6 9 3 5 1012.0 1011.7 0.0
18/02:30am 19.5 21.4 15.8 79 2.2 CALM 0 0 0 0 1012.1 1011.8 0.0
18/02:00am 19.5 21.1 16.0 80 2.1 NNE 2 6 1 3 1012.2 1011.9 0.0
18/01:30am 18.8 20.1 14.1 74 2.7 CALM 0 0 0 0 1012.4 1012.1 0.0
18/01:00am 19.5 21.0 14.7 74 2.8 CALM 0 0 0 0 1012.5 1012.2 0.0
18/12:30am 20.8 22.3 15.6 72 3.1 NE 2 7 1 4 1012.7 1012.4 0.0
18/12:00am 20.5 20.5 12.3 59 4.6 NE 4 6 2 3 1012.6 1012.3 0.0
 
Date/Time
CST
Temp
°C
App
Temp
°C
Dew
Point
Rel
Hum
%
Delta-T
°C
Wind Press
QNH
hPa
Press
MSL
hPa
Rain
since 9 am
mm
Dir
 
Spd
km/h
Gust
km/h
Spd
kts
Gust
kts
17/11:30pm 20.1 20.7 11.8 59 4.6 CALM 0 0 0 0 1012.6 1012.3 0.0
17/11:00pm 20.0 20.2 11.9 59 4.5 WNW 2 7 1 4 1012.7 1012.4 0.0
17/10:30pm 23.7 23.4 14.4 56 5.5 NW 9 15 5 8 1012.7 1012.4 0.0
17/10:00pm 21.6 21.3 8.5 43 6.9 CALM 0 0 0 0 1012.4 1012.1 0.0
17/09:30pm 23.1 23.1 9.7 42 7.3 CALM 0 0 0 0 1012.2 1011.9 0.0
17/09:00pm 22.8 22.4 8.3 39 7.7 CALM 0 0 0 0 1011.9 1011.6 0.0

Other Formats:

Comma delimited format used in spreadsheet applications
http://www.bom.gov.au/fwo/IDD60801/IDD60801.94128.axf

JavaScript Object Notation format (JSON) in row-major order
http://www.bom.gov.au/fwo/IDD60801/IDD60801.94128.json